Latest Coastal Weather Observations for Willis Island

IDQ60701

Issued at 4:32 am EST Saturday 27 August 2016 (issued every 10 minutes, with the page automatically refreshed every 10 minutes)

About coastal observations | Map of coastal stations | Coastal observations for QLD | Marine services | Other Formats
Station Details ID: 200283 Name: WILLIS ISLAND Lat: -16.29 Lon: 149.97 Height: 9.29 m
Data from the previous 72 hours. | See also: Recent months at Willis Island
Date/Time
EST
Temp
°C
Wind Pressure Rain since
9am
mm
Weather Cloud Vis
km
Sea
Height
m
Swell
Dir  Spd
kts
Gust
kts
hPa Trend Height
m
Period
s
Dir
27/04:30am 23.6 SE 20 23 1015.4 - 0.0 - - - - - - -
27/04:00am 23.8 SE 19 22 1015.2 - 0.0 - - - - - - -
27/03:30am 23.8 SSE 19 22 1015.2 - 0.0 - - - - - - -
27/03:00am 23.8 SE 18 21 1015.3 R 0.0 - - - - - - -
27/02:30am 23.8 SSE 19 23 1015.3 - 0.0 - - - - - - -
27/02:00am 23.7 SE 18 21 1015.2 - 0.0 - - - - - - -
27/01:30am 23.7 SSE 19 22 1015.4 - 0.0 - - - - - - -
27/01:00am 23.8 SSE 19 22 1015.8 - 0.0 - - - - - - -
27/12:30am 23.8 SSE 18 21 1015.9 - 0.0 - - - - - - -
27/12:00am 23.4 SSE 17 19 1016.0 R 0.0 - - - - - - -
 
Date/Time
EST
Temp
°C
Wind Pressure Rain since
9am
mm
Weather Cloud Vis
km
Sea
Height
m
Swell
Dir  Spd
kts
Gust
kts
hPa Trend Height
m
Period
s
Dir
26/11:30pm 23.7 SSE 17 23 1016.0 - 0.0 - - - - - - -
26/11:00pm 23.9 SSE 19 22 1016.0 - 0.0 - - - - - - -
26/10:30pm 24.0 SSE 18 21 1015.9 - 0.0 - - - - - - -
26/10:00pm 23.9 SSE 18 21 1015.6 - 0.0 - - - - - - -
26/09:30pm 23.9 SSE 19 22 1015.4 - 0.0 - - - - - - -
26/09:00pm 24.1 SSE 19 21 1015.3 R 0.0 - - - - - - -
26/08:30pm 24.0 SSE 20 23 1015.0 - 0.0 - - - - - - -
26/08:00pm 24.1 SSE 19 22 1014.5 - 0.0 - - - - - - -
26/07:30pm 24.1 S 19 23 1014.1 - 0.0 - - - - - - -
26/07:00pm 24.1 SSE 19 22 1013.5 - 0.0 - - - - - - -
26/06:30pm 24.1 SSE 19 21 1013.0 - 0.0 - - - - - - -
26/06:00pm 24.0 S 22 25 1012.8 R 0.0 Haze Partly cloudy 25 2 1.4 8 E
26/05:30pm 24.1 SSE 21 24 1012.6 - 0.0 - - - - - - -
26/05:00pm 24.3 S 21 25 1012.5 - 0.0 - - - - - - -
26/04:30pm 24.5 S 22 26 1012.3 - 0.0 - - - - - - -
26/04:00pm 24.7 S 23 25 1012.0 - 0.0 - - - - - - -
26/03:30pm 24.6 S 22 24 1011.8 - 0.0 - - - - - - -
26/03:00pm 25.2 S 21 25 1011.7 R 0.0 Distant precip. Cloudy 15 2 1.3 8 E
26/02:30pm 25.2 S 22 25 1011.9 - 0.0 - - - - - - -
26/02:00pm 24.9 S 22 25 1011.9 - 0.0 - - - - - - -
26/01:30pm 24.8 S 21 24 1012.0 - 0.0 - - - - - - -
26/01:00pm 24.7 S 22 25 1012.0 - 0.0 - - - - - - -
26/12:45pm 24.9 SSW 19 24 1012.1 - 0.0 - - - - - - -
26/12:30pm 26.3 WSW 10 15 1012.1 - 0.0 - - - - - - -
26/12:00pm 27.5 W 9 10 1012.3 R 0.0 Distant precip. Mostly cloudy 5 1 1.0 8 E
26/11:30am 27.7 WNW 6 7 1012.7 - 0.0 - - - - - - -
26/11:00am 27.7 WNW 7 8 1012.9 - 0.0 - - - - - - -
26/10:30am 26.9 WNW 7 7 1013.4 - 0.0 - - - - - - -
26/10:00am 27.0 WNW 5 6 1013.5 - 0.0 - - - - - - -
26/09:30am 26.5 WNW 6 6 1013.5 - 0.0 - - - - - - -
26/09:00am 26.3 WNW 6 7 1013.3 F 0.0 Mist Mostly cloudy 3 1 1.0 8 E
26/08:30am 26.5 NW 5 7 1013.3 - 0.0 - - - - - - -
26/08:00am 25.8 NNW 6 7 1013.1 - 0.0 - - - - - - -
26/07:30am 25.5 N 8 9 1012.8 - 0.0 - - - - - - -
26/07:00am 25.3 N 9 10 1012.5 - 0.0 - - - - - - -
26/06:30am 25.3 N 9 11 1012.3 - 0.0 - - - - - - -
26/06:00am 25.3 N 10 11 1012.0 R 0.0 - - - - - - -
26/05:30am 25.2 N 11 14 1011.7 - 0.0 - - - - - - -
26/05:00am 25.2 NNE 11 13 1011.1 - 0.0 - - - - - - -
26/04:30am 25.2 N 8 9 1011.6 - 0.0 - - - - - - -
26/04:00am 25.2 N 10 11 1011.2 - 0.0 - - - - - - -
26/03:30am 25.2 N 8 8 1011.2 - 0.0 - - - - - - -
26/03:00am 25.2 N 7 8 1011.1 R 0.0 - - - - - - -
26/02:30am 25.2 N 6 7 1011.2 - 0.0 - - - - - - -
26/02:00am 25.1 NNE 5 6 1011.3 - 0.0 - - - - - - -
26/01:30am 25.2 N 7 8 1011.6 - 0.0 - - - - - - -
26/01:00am 25.1 NNE 8 8 1011.9 - 0.0 - - - - - - -
26/12:30am 25.1 NNE 7 8 1011.9 - 0.0 - - - - - - -
26/12:00am 25.2 NNE 8 8 1012.3 F 0.0 - - - - - - -
 
Date/Time
EST
Temp
°C
Wind Pressure Rain since
9am
mm
Weather Cloud Vis
km
Sea
Height
m
Swell
Dir  Spd
kts
Gust
kts
hPa Trend Height
m
Period
s
Dir
25/11:30pm 25.2 NNE 8 8 1012.6 - 0.0 - - - - - - -
25/11:00pm 25.2 NNE 8 9 1012.9 - 0.0 - - - - - - -
25/10:30pm 25.2 NNE 9 10 1012.8 - 0.0 - - - - - - -
25/10:00pm 25.2 NNE 8 9 1012.9 - 0.0 - - - - - - -
25/09:30pm 25.3 NE 7 7 1012.9 - 0.0 - - - - - - -
25/09:00pm 25.3 NNE 7 8 1012.8 S 0.0 - - - - - - -
25/08:30pm 25.3 NE 6 7 1012.8 - 0.0 - - - - - - -
25/08:00pm 25.3 NNE 6 7 1012.4 - 0.0 - - - - - - -
25/07:30pm 25.4 NNE 7 8 1012.2 - 0.0 - - - - - - -
25/07:00pm 25.4 NE 6 8 1011.8 - 0.0 - - - - - - -
25/06:30pm 25.4 NE 7 8 1011.6 - 0.0 - - - - - - -
25/06:00pm 25.4 NNE 7 8 1011.3 R 0.0 Distant precip. Cloudy 5 1 1.2 8 E
25/05:30pm 25.5 NNE 7 8 1010.9 - 0.0 - - - - - - -
25/05:00pm 25.6 NNE 8 9 1010.7 - 0.0 - - - - - - -
25/04:30pm 25.9 NE 9 9 1010.4 - 0.0 - - - - - - -
25/04:00pm 26.1 NNE 8 8 1010.2 - 0.0 - - - - - - -
25/03:30pm 26.5 NNE 8 9 1010.0 - 0.0 - - - - - - -
25/03:00pm 26.7 NNE 9 10 1009.8 R 0.0 Distant precip. Mostly cloudy 8 1 1.3 8 E
25/02:30pm 26.8 NNE 10 11 1009.8 - 0.0 - - - - - - -
25/02:00pm 27.2 NNE 8 9 1010.1 - 0.0 - - - - - - -
25/01:30pm 27.0 NNE 7 7 1010.3 - 0.0 - - - - - - -
25/01:00pm 27.1 NNE 7 8 1010.5 - 0.0 - - - - - - -
25/12:30pm 26.9 NNE 7 8 1010.8 - 0.0 - - - - - - -
25/12:00pm 27.4 NNE 7 8 1011.1 R 0.0 Fine Cloudy 8 1 1.3 8 E
25/11:30am 26.2 NNE 7 8 1011.3 - 0.0 - - - - - - -
25/11:00am 26.5 NNE 8 9 1011.6 - 0.0 - - - - - - -
25/10:30am 26.4 NNE 9 10 1011.9 - 0.0 - - - - - - -
25/10:00am 25.9 NNE 11 12 1012.0 - 0.0 - - - - - - -
25/09:30am 26.1 NE 12 14 1011.9 - 0.0 - - - - - - -
25/09:00am 25.9 NNE 10 12 1012.2 F 0.0 Mist Cloudy 7 1 1.4 8 E
25/08:30am 25.6 NNE 11 13 1012.0 - 0.0 - - - - - - -
25/08:00am 25.6 NE 12 14 1011.6 - 0.0 - - - - - - -
25/07:30am 25.2 NE 13 14 1011.4 - 0.0 - - - - - - -
25/07:00am 25.1 NE 13 15 1011.1 - 0.0 - - - - - - -
25/06:30am 25.1 NE 9 11 1011.3 - 0.0 - - - - - - -
25/06:00am 25.0 NE 12 14 1010.8 S 0.0 - - - - - - -
25/05:30am 25.0 NE 12 13 1010.6 - 0.0 - - - - - - -
25/05:00am 25.0 NE 10 12 1010.6 - 0.0 - - - - - - -
25/04:30am 25.0 NE 11 12 1010.4 - 0.0 - - - - - - -
25/04:00am 25.0 NNE 10 11 1010.3 - 0.0 - - - - - - -
25/03:30am 25.0 NE 9 10 1010.2 - 0.0 - - - - - - -
25/03:00am 25.0 NNE 10 11 1010.2 F 0.0 - - - - - - -
25/02:30am 25.0 NE 11 12 1010.3 - 0.0 - - - - - - -
25/02:00am 25.0 NNE 12 13 1010.6 - 0.0 - - - - - - -
25/01:30am 25.1 NNE 12 13 1010.8 - 0.0 - - - - - - -
25/01:00am 25.1 NNE 12 14 1011.0 - 0.0 - - - - - - -
25/12:30am 25.0 NNE 13 15 1011.2 - 0.0 - - - - - - -
25/12:00am 25.0 NNE 12 13 1011.6 F 0.0 - - - - - - -
 
Date/Time
EST
Temp
°C
Wind Pressure Rain since
9am
mm
Weather Cloud Vis
km
Sea
Height
m
Swell
Dir  Spd
kts
Gust
kts
hPa Trend Height
m
Period
s
Dir
24/11:30pm 25.1 NNE 11 13 1012.0 - 0.0 - - - - - - -
24/11:00pm 25.1 NE 10 11 1012.2 - 0.0 - - - - - - -
24/10:30pm 25.1 NE 11 11 1012.0 - 0.0 - - - - - - -
24/10:00pm 25.1 NE 11 11 1012.2 - 0.0 - - - - - - -
24/09:30pm 25.1 NE 10 11 1012.2 - 0.0 - - - - - - -
24/09:00pm 25.1 NE 10 12 1012.1 S 0.0 - - - - - - -
24/08:30pm 25.1 NE 11 11 1011.9 - 0.0 - - - - - - -
24/08:00pm 25.2 NE 11 12 1011.7 - 0.0 - - - - - - -
24/07:30pm 25.2 NE 10 11 1011.5 - 0.0 - - - - - - -
24/07:00pm 25.2 NE 8 9 1011.3 - 0.0 - - - - - - -
24/06:30pm 25.3 NE 8 9 1010.9 - 0.0 - - - - - - -
24/06:00pm 25.4 NNE 9 10 1010.6 S 0.0 Mist Mostly cloudy 7 2 1.6 8 E
24/05:30pm 25.5 NNE 9 10 1010.5 - 0.0 - - - - - - -
24/05:00pm 25.6 NNE 10 11 1010.1 - 0.0 - - - - - - -
24/04:30pm 25.9 NNE 11 12 1009.9 - 0.0 - - - - - - -
24/04:00pm 26.3 NNE 10 11 1009.8 - 0.0 - - - - - - -
24/03:30pm 26.3 NE 9 11 1009.8 - 0.0 - - - - - - -
24/03:00pm 26.6 NE 8 9 1009.8 S 0.0 Mist Mostly cloudy 7 2 1.6 8 E
24/02:30pm 26.6 NE 9 10 1009.7 - 0.0 - - - - - - -
24/02:00pm 26.9 NE 9 10 1010.0 - 0.0 - - - - - - -
24/01:30pm 26.9 NE 8 9 1010.5 - 0.0 - - - - - - -
24/01:00pm 27.6 NE 9 10 1010.8 - 0.0 - - - - - - -
24/12:30pm 27.1 NE 8 9 1011.2 - 0.0 - - - - - - -
24/12:00pm 27.5 NE 8 9 1011.5 F 0.0 Mist Mostly cloudy 7 2 1.4 8 SE
24/11:30am 27.2 NE 9 10 1011.9 - 0.0 - - - - - - -
24/11:00am 27.0 NE 10 11 1012.3 - 0.0 - - - - - - -
24/10:30am 26.9 NE 9 11 1012.8 - 0.0 - - - - - - -
24/10:00am 26.7 NE 9 10 1013.1 - 0.0 - - - - - - -
24/09:30am 26.5 NE 10 11 1013.2 - 0.0 - - - - - - -
24/09:00am 26.1 NE 8 10 1013.2 S 0.2 Distant precip. Mostly cloudy 7 2 1.4 10 SE
24/08:30am 25.6 NE 9 10 1013.0 - - - - - - - - -
24/08:00am 25.2 NE 11 12 1012.7 - - - - - - - - -
24/07:30am 25.1 NE 11 12 1012.4 - - - - - - - - -
24/07:00am 25.0 - - - 1012.4 - - - - - - - - -
24/06:30am 25.0 NE 9 11 1012.1 - 0.0 - - - - - - -
24/06:00am 25.0 NE 10 12 1011.6 R 0.0 - - - - - - -
24/05:30am 24.9 NE 9 10 1011.0 - 0.0 - - - - - - -
24/05:00am 24.9 ENE 8 9 1010.6 - 0.0 - - - - - - -

Other Formats:

Comma delimited format used in spreadsheet applications
http://www.bom.gov.au/fwo/IDQ60701/IDQ60701.94299.axf

JavaScript Object Notation format (JSON) in row-major order
http://www.bom.gov.au/fwo/IDQ60701/IDQ60701.94299.json